sensor_id;sensor_type;location;lat;lon;timestamp;P1;durP1;ratioP1;P2;durP2;ratioP2
842;SDS011;407;48.884;9.126;2023-02-23T00:00:27;24.00;;;12.50;;
842;SDS011;407;48.884;9.126;2023-02-23T00:02:57;28.40;;;13.77;;
842;SDS011;407;48.884;9.126;2023-02-23T00:05:28;28.33;;;12.55;;
842;SDS011;407;48.884;9.126;2023-02-23T00:07:59;23.00;;;12.98;;
842;SDS011;407;48.884;9.126;2023-02-23T00:10:25;25.48;;;13.35;;
842;SDS011;407;48.884;9.126;2023-02-23T00:12:54;25.98;;;12.30;;
842;SDS011;407;48.884;9.126;2023-02-23T00:15:22;27.27;;;12.60;;
842;SDS011;407;48.884;9.126;2023-02-23T00:17:50;26.60;;;13.13;;
842;SDS011;407;48.884;9.126;2023-02-23T00:20:20;25.08;;;12.85;;
842;SDS011;407;48.884;9.126;2023-02-23T00:22:52;28.77;;;12.60;;
842;SDS011;407;48.884;9.126;2023-02-23T00:25:19;25.50;;;12.50;;
842;SDS011;407;48.884;9.126;2023-02-23T00:27:45;27.80;;;12.90;;
842;SDS011;407;48.884;9.126;2023-02-23T00:30:12;22.83;;;12.55;;
842;SDS011;407;48.884;9.126;2023-02-23T00:32:39;27.05;;;13.38;;
842;SDS011;407;48.884;9.126;2023-02-23T00:35:05;32.42;;;13.90;;
842;SDS011;407;48.884;9.126;2023-02-23T00:37:40;25.17;;;13.18;;
842;SDS011;407;48.884;9.126;2023-02-23T00:40:08;28.23;;;13.82;;
842;SDS011;407;48.884;9.126;2023-02-23T00:42:37;29.07;;;13.07;;
842;SDS011;407;48.884;9.126;2023-02-23T00:45:04;25.42;;;13.35;;
842;SDS011;407;48.884;9.126;2023-02-23T00:47:34;24.00;;;13.65;;
842;SDS011;407;48.884;9.126;2023-02-23T00:50:00;27.87;;;13.60;;
842;SDS011;407;48.884;9.126;2023-02-23T00:52:31;25.42;;;13.07;;
842;SDS011;407;48.884;9.126;2023-02-23T00:54:57;25.10;;;13.48;;
842;SDS011;407;48.884;9.126;2023-02-23T00:57:22;25.20;;;13.50;;
842;SDS011;407;48.884;9.126;2023-02-23T00:59:48;26.87;;;13.63;;
842;SDS011;407;48.884;9.126;2023-02-23T01:02:14;27.85;;;13.60;;
842;SDS011;407;48.884;9.126;2023-02-23T01:04:39;28.60;;;14.10;;
842;SDS011;407;48.884;9.126;2023-02-23T01:07:05;30.03;;;13.67;;
842;SDS011;407;48.884;9.126;2023-02-23T01:09:31;25.85;;;12.80;;
842;SDS011;407;48.884;9.126;2023-02-23T01:11:57;23.95;;;13.13;;
842;SDS011;407;48.884;9.126;2023-02-23T01:14:25;27.75;;;13.40;;
842;SDS011;407;48.884;9.126;2023-02-23T01:16:51;24.23;;;13.07;;
842;SDS011;407;48.884;9.126;2023-02-23T01:19:17;26.98;;;13.35;;
842;SDS011;407;48.884;9.126;2023-02-23T01:21:43;24.10;;;12.50;;
842;SDS011;407;48.884;9.126;2023-02-23T01:24:10;28.77;;;12.32;;
842;SDS011;407;48.884;9.126;2023-02-23T01:26:37;27.13;;;12.88;;
842;SDS011;407;48.884;9.126;2023-02-23T01:29:06;25.40;;;13.33;;
842;SDS011;407;48.884;9.126;2023-02-23T01:31:34;26.08;;;13.10;;
842;SDS011;407;48.884;9.126;2023-02-23T01:34:02;27.00;;;13.50;;
842;SDS011;407;48.884;9.126;2023-02-23T01:36:28;25.00;;;12.57;;
842;SDS011;407;48.884;9.126;2023-02-23T01:38:56;25.05;;;13.75;;
842;SDS011;407;48.884;9.126;2023-02-23T01:41:24;26.15;;;12.27;;
842;SDS011;407;48.884;9.126;2023-02-23T01:46:39;30.10;;;13.80;;
842;SDS011;407;48.884;9.126;2023-02-23T01:49:08;28.42;;;14.60;;
842;SDS011;407;48.884;9.126;2023-02-23T01:51:48;25.20;;;13.57;;
842;SDS011;407;48.884;9.126;2023-02-23T01:54:20;29.98;;;14.25;;
842;SDS011;407;48.884;9.126;2023-02-23T01:57:00;24.45;;;13.30;;
842;SDS011;407;48.884;9.126;2023-02-23T02:02:01;30.10;;;15.00;;
842;SDS011;407;48.884;9.126;2023-02-23T02:04:30;26.85;;;14.77;;
842;SDS011;407;48.884;9.126;2023-02-23T02:07:09;26.58;;;14.15;;
842;SDS011;407;48.884;9.126;2023-02-23T02:09:38;29.15;;;14.13;;
842;SDS011;407;48.884;9.126;2023-02-23T02:12:13;28.85;;;15.20;;
842;SDS011;407;48.884;9.126;2023-02-23T02:14:38;30.50;;;14.57;;
842;SDS011;407;48.884;9.126;2023-02-23T02:28:12;32.60;;;14.88;;
842;SDS011;407;48.884;9.126;2023-02-23T02:44:42;29.42;;;16.00;;
842;SDS011;407;48.884;9.126;2023-02-23T02:47:40;31.92;;;16.13;;
842;SDS011;407;48.884;9.126;2023-02-23T02:50:14;32.97;;;16.52;;
842;SDS011;407;48.884;9.126;2023-02-23T02:52:56;32.05;;;15.98;;
842;SDS011;407;48.884;9.126;2023-02-23T02:55:29;30.08;;;15.10;;
842;SDS011;407;48.884;9.126;2023-02-23T02:57:58;37.10;;;17.13;;
842;SDS011;407;48.884;9.126;2023-02-23T03:00:36;33.10;;;17.00;;
842;SDS011;407;48.884;9.126;2023-02-23T03:06:14;34.58;;;17.23;;
842;SDS011;407;48.884;9.126;2023-02-23T03:09:02;29.55;;;15.63;;
842;SDS011;407;48.884;9.126;2023-02-23T03:11:58;34.20;;;15.43;;
842;SDS011;407;48.884;9.126;2023-02-23T03:14:54;31.73;;;16.88;;
842;SDS011;407;48.884;9.126;2023-02-23T03:18:21;33.97;;;16.95;;
842;SDS011;407;48.884;9.126;2023-02-23T03:21:24;36.22;;;17.85;;
842;SDS011;407;48.884;9.126;2023-02-23T03:30:20;31.55;;;16.23;;
842;SDS011;407;48.884;9.126;2023-02-23T03:33:15;37.60;;;18.90;;
842;SDS011;407;48.884;9.126;2023-02-23T03:41:43;35.70;;;18.45;;
842;SDS011;407;48.884;9.126;2023-02-23T03:44:33;33.80;;;16.67;;
842;SDS011;407;48.884;9.126;2023-02-23T03:47:23;35.30;;;18.00;;
842;SDS011;407;48.884;9.126;2023-02-23T03:50:14;35.07;;;16.97;;
842;SDS011;407;48.884;9.126;2023-02-23T03:53:05;31.60;;;16.80;;
842;SDS011;407;48.884;9.126;2023-02-23T03:55:53;36.03;;;18.15;;
842;SDS011;407;48.884;9.126;2023-02-23T03:58:42;32.50;;;17.00;;
842;SDS011;407;48.884;9.126;2023-02-23T04:01:30;31.73;;;16.98;;
842;SDS011;407;48.884;9.126;2023-02-23T04:04:16;30.33;;;16.73;;
842;SDS011;407;48.884;9.126;2023-02-23T04:07:01;33.67;;;18.40;;
842;SDS011;407;48.884;9.126;2023-02-23T04:09:47;35.80;;;18.00;;
842;SDS011;407;48.884;9.126;2023-02-23T04:12:33;30.48;;;16.80;;
842;SDS011;407;48.884;9.126;2023-02-23T04:15:32;34.65;;;16.90;;
842;SDS011;407;48.884;9.126;2023-02-23T04:18:02;34.63;;;16.75;;
842;SDS011;407;48.884;9.126;2023-02-23T04:20:28;31.03;;;17.00;;
842;SDS011;407;48.884;9.126;2023-02-23T04:22:54;30.65;;;16.15;;
842;SDS011;407;48.884;9.126;2023-02-23T04:25:20;32.43;;;16.73;;
842;SDS011;407;48.884;9.126;2023-02-23T04:27:49;32.22;;;16.42;;
842;SDS011;407;48.884;9.126;2023-02-23T04:30:15;33.95;;;17.60;;
842;SDS011;407;48.884;9.126;2023-02-23T04:32:42;33.15;;;17.02;;
842;SDS011;407;48.884;9.126;2023-02-23T04:35:10;31.58;;;15.48;;
842;SDS011;407;48.884;9.126;2023-02-23T04:37:37;28.35;;;16.40;;
842;SDS011;407;48.884;9.126;2023-02-23T04:40:03;31.90;;;16.10;;
842;SDS011;407;48.884;9.126;2023-02-23T04:42:29;32.00;;;16.85;;
842;SDS011;407;48.884;9.126;2023-02-23T04:44:55;33.75;;;16.48;;
842;SDS011;407;48.884;9.126;2023-02-23T04:47:20;32.93;;;16.23;;
842;SDS011;407;48.884;9.126;2023-02-23T04:49:46;32.23;;;16.70;;
842;SDS011;407;48.884;9.126;2023-02-23T04:52:12;30.20;;;15.90;;
842;SDS011;407;48.884;9.126;2023-02-23T04:54:38;32.83;;;16.93;;
842;SDS011;407;48.884;9.126;2023-02-23T04:57:04;32.55;;;16.30;;
842;SDS011;407;48.884;9.126;2023-02-23T04:59:30;35.08;;;17.50;;
842;SDS011;407;48.884;9.126;2023-02-23T05:01:57;31.40;;;15.57;;
842;SDS011;407;48.884;9.126;2023-02-23T05:04:22;29.00;;;16.77;;
842;SDS011;407;48.884;9.126;2023-02-23T05:06:48;29.38;;;15.50;;
842;SDS011;407;48.884;9.126;2023-02-23T05:09:14;32.17;;;16.15;;
842;SDS011;407;48.884;9.126;2023-02-23T05:11:39;31.33;;;16.67;;
842;SDS011;407;48.884;9.126;2023-02-23T05:14:05;29.40;;;16.57;;
842;SDS011;407;48.884;9.126;2023-02-23T05:16:31;33.42;;;17.10;;
842;SDS011;407;48.884;9.126;2023-02-23T05:18:57;33.85;;;16.88;;
842;SDS011;407;48.884;9.126;2023-02-23T05:21:22;33.97;;;17.60;;
842;SDS011;407;48.884;9.126;2023-02-23T05:23:49;33.50;;;15.90;;
842;SDS011;407;48.884;9.126;2023-02-23T05:26:15;33.95;;;17.00;;
842;SDS011;407;48.884;9.126;2023-02-23T05:28:41;31.45;;;16.75;;
842;SDS011;407;48.884;9.126;2023-02-23T05:31:08;28.63;;;15.55;;
842;SDS011;407;48.884;9.126;2023-02-23T05:33:35;29.15;;;16.52;;
842;SDS011;407;48.884;9.126;2023-02-23T05:36:14;35.03;;;16.23;;
842;SDS011;407;48.884;9.126;2023-02-23T05:38:41;29.27;;;16.50;;
842;SDS011;407;48.884;9.126;2023-02-23T05:41:08;29.35;;;15.52;;
842;SDS011;407;48.884;9.126;2023-02-23T05:43:35;36.03;;;17.58;;
842;SDS011;407;48.884;9.126;2023-02-23T05:46:05;31.13;;;16.67;;
842;SDS011;407;48.884;9.126;2023-02-23T05:48:35;29.52;;;16.20;;
842;SDS011;407;48.884;9.126;2023-02-23T05:51:02;32.25;;;16.23;;
842;SDS011;407;48.884;9.126;2023-02-23T05:53:33;31.70;;;16.40;;
842;SDS011;407;48.884;9.126;2023-02-23T05:56:00;32.03;;;15.65;;
842;SDS011;407;48.884;9.126;2023-02-23T05:58:26;34.70;;;17.38;;
842;SDS011;407;48.884;9.126;2023-02-23T06:00:52;30.65;;;15.48;;
842;SDS011;407;48.884;9.126;2023-02-23T06:03:17;36.60;;;17.13;;
842;SDS011;407;48.884;9.126;2023-02-23T06:05:50;34.03;;;17.40;;
842;SDS011;407;48.884;9.126;2023-02-23T06:08:21;32.33;;;16.67;;
842;SDS011;407;48.884;9.126;2023-02-23T06:10:48;29.97;;;16.80;;
842;SDS011;407;48.884;9.126;2023-02-23T06:13:14;28.98;;;17.30;;
842;SDS011;407;48.884;9.126;2023-02-23T06:15:40;29.40;;;15.57;;
842;SDS011;407;48.884;9.126;2023-02-23T06:18:06;31.92;;;16.38;;
842;SDS011;407;48.884;9.126;2023-02-23T06:20:35;33.28;;;16.52;;
842;SDS011;407;48.884;9.126;2023-02-23T06:23:02;34.50;;;16.60;;
842;SDS011;407;48.884;9.126;2023-02-23T06:25:28;36.08;;;16.42;;
842;SDS011;407;48.884;9.126;2023-02-23T06:27:54;30.97;;;16.50;;
842;SDS011;407;48.884;9.126;2023-02-23T06:30:20;28.92;;;16.30;;
842;SDS011;407;48.884;9.126;2023-02-23T06:32:46;33.47;;;16.70;;
842;SDS011;407;48.884;9.126;2023-02-23T06:35:11;30.90;;;15.60;;
842;SDS011;407;48.884;9.126;2023-02-23T06:37:37;30.55;;;16.75;;
842;SDS011;407;48.884;9.126;2023-02-23T06:40:03;37.60;;;15.20;;
842;SDS011;407;48.884;9.126;2023-02-23T06:42:29;33.17;;;16.65;;
842;SDS011;407;48.884;9.126;2023-02-23T06:44:55;31.37;;;15.73;;
842;SDS011;407;48.884;9.126;2023-02-23T06:47:21;35.30;;;17.90;;
842;SDS011;407;48.884;9.126;2023-02-23T06:49:46;36.17;;;17.03;;
842;SDS011;407;48.884;9.126;2023-02-23T06:52:12;32.00;;;16.77;;
842;SDS011;407;48.884;9.126;2023-02-23T06:54:38;31.05;;;16.75;;
842;SDS011;407;48.884;9.126;2023-02-23T06:57:05;30.73;;;16.73;;
842;SDS011;407;48.884;9.126;2023-02-23T06:59:31;34.83;;;17.58;;
842;SDS011;407;48.884;9.126;2023-02-23T07:01:57;33.45;;;17.48;;
842;SDS011;407;48.884;9.126;2023-02-23T07:04:23;32.03;;;15.97;;
842;SDS011;407;48.884;9.126;2023-02-23T07:06:49;29.52;;;15.02;;
842;SDS011;407;48.884;9.126;2023-02-23T07:09:15;29.20;;;16.02;;
842;SDS011;407;48.884;9.126;2023-02-23T07:11:41;31.35;;;16.40;;
842;SDS011;407;48.884;9.126;2023-02-23T07:14:09;34.55;;;16.88;;
842;SDS011;407;48.884;9.126;2023-02-23T07:16:35;35.15;;;16.23;;
842;SDS011;407;48.884;9.126;2023-02-23T07:19:02;29.27;;;15.80;;
842;SDS011;407;48.884;9.126;2023-02-23T07:21:28;34.25;;;17.05;;
842;SDS011;407;48.884;9.126;2023-02-23T07:23:56;28.35;;;15.55;;
842;SDS011;407;48.884;9.126;2023-02-23T07:26:22;34.85;;;17.20;;
842;SDS011;407;48.884;9.126;2023-02-23T07:28:48;34.28;;;16.58;;
842;SDS011;407;48.884;9.126;2023-02-23T07:31:14;33.83;;;15.30;;
842;SDS011;407;48.884;9.126;2023-02-23T07:33:40;33.27;;;16.00;;
842;SDS011;407;48.884;9.126;2023-02-23T07:36:05;30.13;;;16.60;;
842;SDS011;407;48.884;9.126;2023-02-23T07:38:31;30.60;;;15.70;;
842;SDS011;407;48.884;9.126;2023-02-23T07:40:57;26.58;;;15.15;;
842;SDS011;407;48.884;9.126;2023-02-23T07:43:23;28.03;;;15.03;;
842;SDS011;407;48.884;9.126;2023-02-23T07:45:49;26.48;;;15.27;;
842;SDS011;407;48.884;9.126;2023-02-23T07:48:15;32.47;;;16.07;;
842;SDS011;407;48.884;9.126;2023-02-23T07:50:42;31.85;;;16.08;;
842;SDS011;407;48.884;9.126;2023-02-23T07:53:09;33.07;;;16.67;;
842;SDS011;407;48.884;9.126;2023-02-23T07:55:35;34.60;;;18.08;;
842;SDS011;407;48.884;9.126;2023-02-23T07:58:02;30.77;;;16.55;;
842;SDS011;407;48.884;9.126;2023-02-23T08:00:29;28.60;;;15.30;;
842;SDS011;407;48.884;9.126;2023-02-23T08:02:55;32.58;;;17.00;;
842;SDS011;407;48.884;9.126;2023-02-23T08:05:21;29.00;;;14.60;;
842;SDS011;407;48.884;9.126;2023-02-23T08:07:46;34.45;;;15.05;;
842;SDS011;407;48.884;9.126;2023-02-23T08:10:12;25.23;;;12.73;;
842;SDS011;407;48.884;9.126;2023-02-23T08:12:38;24.93;;;12.90;;
842;SDS011;407;48.884;9.126;2023-02-23T08:15:04;26.77;;;13.77;;
842;SDS011;407;48.884;9.126;2023-02-23T08:17:32;23.45;;;13.48;;
842;SDS011;407;48.884;9.126;2023-02-23T08:19:58;23.92;;;10.80;;
842;SDS011;407;48.884;9.126;2023-02-23T08:22:24;23.45;;;11.00;;
842;SDS011;407;48.884;9.126;2023-02-23T08:24:50;19.88;;;10.85;;
842;SDS011;407;48.884;9.126;2023-02-23T08:27:17;22.95;;;10.40;;
842;SDS011;407;48.884;9.126;2023-02-23T08:29:43;24.88;;;12.02;;
842;SDS011;407;48.884;9.126;2023-02-23T08:32:08;23.43;;;11.23;;
842;SDS011;407;48.884;9.126;2023-02-23T08:34:40;20.65;;;10.85;;
842;SDS011;407;48.884;9.126;2023-02-23T08:37:07;20.27;;;10.68;;
842;SDS011;407;48.884;9.126;2023-02-23T08:39:33;18.55;;;10.50;;
842;SDS011;407;48.884;9.126;2023-02-23T08:41:59;19.50;;;9.87;;
842;SDS011;407;48.884;9.126;2023-02-23T08:44:24;18.70;;;9.68;;
842;SDS011;407;48.884;9.126;2023-02-23T08:46:50;23.00;;;10.20;;
842;SDS011;407;48.884;9.126;2023-02-23T08:49:17;20.02;;;8.82;;
842;SDS011;407;48.884;9.126;2023-02-23T08:51:43;17.75;;;9.30;;
842;SDS011;407;48.884;9.126;2023-02-23T08:54:10;17.27;;;8.50;;
842;SDS011;407;48.884;9.126;2023-02-23T08:56:39;18.87;;;8.77;;
842;SDS011;407;48.884;9.126;2023-02-23T08:59:06;20.17;;;8.95;;
842;SDS011;407;48.884;9.126;2023-02-23T09:01:33;16.73;;;8.68;;
842;SDS011;407;48.884;9.126;2023-02-23T09:04:02;17.73;;;8.98;;
842;SDS011;407;48.884;9.126;2023-02-23T09:06:29;17.00;;;7.72;;
842;SDS011;407;48.884;9.126;2023-02-23T09:08:56;17.88;;;8.43;;
842;SDS011;407;48.884;9.126;2023-02-23T09:11:22;17.30;;;8.10;;
842;SDS011;407;48.884;9.126;2023-02-23T09:13:48;16.92;;;8.50;;
842;SDS011;407;48.884;9.126;2023-02-23T09:16:14;16.35;;;8.02;;
842;SDS011;407;48.884;9.126;2023-02-23T09:18:40;21.50;;;8.60;;
842;SDS011;407;48.884;9.126;2023-02-23T09:21:09;15.38;;;7.38;;
842;SDS011;407;48.884;9.126;2023-02-23T09:23:42;14.02;;;7.15;;
842;SDS011;407;48.884;9.126;2023-02-23T09:26:10;18.67;;;8.05;;
842;SDS011;407;48.884;9.126;2023-02-23T09:28:36;15.45;;;7.30;;
842;SDS011;407;48.884;9.126;2023-02-23T09:31:06;16.33;;;6.63;;
842;SDS011;407;48.884;9.126;2023-02-23T09:33:33;14.20;;;6.80;;
842;SDS011;407;48.884;9.126;2023-02-23T09:35:59;15.88;;;6.85;;
842;SDS011;407;48.884;9.126;2023-02-23T09:38:24;16.20;;;7.00;;
842;SDS011;407;48.884;9.126;2023-02-23T09:40:52;14.17;;;6.53;;
842;SDS011;407;48.884;9.126;2023-02-23T09:48:38;12.77;;;5.82;;
842;SDS011;407;48.884;9.126;2023-02-23T09:51:05;14.18;;;6.50;;
842;SDS011;407;48.884;9.126;2023-02-23T09:53:39;13.30;;;6.00;;
842;SDS011;407;48.884;9.126;2023-02-23T09:56:13;12.52;;;5.68;;
842;SDS011;407;48.884;9.126;2023-02-23T09:59:03;15.40;;;5.80;;
842;SDS011;407;48.884;9.126;2023-02-23T10:01:43;10.35;;;5.68;;
842;SDS011;407;48.884;9.126;2023-02-23T10:04:22;13.82;;;5.50;;
842;SDS011;407;48.884;9.126;2023-02-23T10:07:01;16.03;;;5.57;;
842;SDS011;407;48.884;9.126;2023-02-23T10:12:29;11.05;;;4.25;;
842;SDS011;407;48.884;9.126;2023-02-23T10:15:59;9.00;;;3.92;;
842;SDS011;407;48.884;9.126;2023-02-23T10:20:49;10.10;;;3.90;;
842;SDS011;407;48.884;9.126;2023-02-23T10:23:28;8.52;;;3.22;;
842;SDS011;407;48.884;9.126;2023-02-23T10:26:00;8.90;;;3.80;;
842;SDS011;407;48.884;9.126;2023-02-23T10:28:26;9.18;;;3.97;;
842;SDS011;407;48.884;9.126;2023-02-23T10:30:57;8.95;;;4.22;;
842;SDS011;407;48.884;9.126;2023-02-23T10:33:32;10.30;;;4.30;;
842;SDS011;407;48.884;9.126;2023-02-23T10:36:10;9.70;;;4.10;;
842;SDS011;407;48.884;9.126;2023-02-23T10:38:43;12.23;;;4.40;;
842;SDS011;407;48.884;9.126;2023-02-23T10:41:09;10.85;;;4.72;;
842;SDS011;407;48.884;9.126;2023-02-23T10:43:36;11.80;;;4.50;;
842;SDS011;407;48.884;9.126;2023-02-23T10:46:02;9.00;;;3.78;;
842;SDS011;407;48.884;9.126;2023-02-23T10:48:37;11.32;;;4.30;;
842;SDS011;407;48.884;9.126;2023-02-23T10:51:11;10.02;;;3.80;;
842;SDS011;407;48.884;9.126;2023-02-23T10:53:48;13.50;;;4.95;;
842;SDS011;407;48.884;9.126;2023-02-23T10:56:14;10.25;;;4.03;;
842;SDS011;407;48.884;9.126;2023-02-23T10:58:43;11.90;;;3.50;;
842;SDS011;407;48.884;9.126;2023-02-23T11:01:12;8.50;;;3.50;;
842;SDS011;407;48.884;9.126;2023-02-23T11:03:56;10.20;;;4.07;;
842;SDS011;407;48.884;9.126;2023-02-23T11:06:37;8.93;;;3.33;;
842;SDS011;407;48.884;9.126;2023-02-23T11:11:58;10.65;;;3.83;;
842;SDS011;407;48.884;9.126;2023-02-23T11:14:26;10.83;;;4.10;;
842;SDS011;407;48.884;9.126;2023-02-23T11:16:54;10.00;;;3.40;;
842;SDS011;407;48.884;9.126;2023-02-23T11:22:02;9.68;;;3.90;;
842;SDS011;407;48.884;9.126;2023-02-23T11:24:33;10.90;;;4.17;;
842;SDS011;407;48.884;9.126;2023-02-23T11:27:02;9.70;;;3.80;;
842;SDS011;407;48.884;9.126;2023-02-23T11:31:59;9.60;;;4.10;;
842;SDS011;407;48.884;9.126;2023-02-23T11:34:47;10.67;;;3.60;;
842;SDS011;407;48.884;9.126;2023-02-23T11:37:45;9.07;;;3.70;;
842;SDS011;407;48.884;9.126;2023-02-23T11:45:28;9.00;;;3.58;;
842;SDS011;407;48.884;9.126;2023-02-23T11:47:57;9.27;;;3.55;;
842;SDS011;407;48.884;9.126;2023-02-23T11:50:27;11.90;;;4.18;;
842;SDS011;407;48.884;9.126;2023-02-23T11:52:55;11.25;;;3.40;;
842;SDS011;407;48.884;9.126;2023-02-23T11:55:22;10.25;;;3.22;;
842;SDS011;407;48.884;9.126;2023-02-23T11:57:49;11.27;;;3.97;;
842;SDS011;407;48.884;9.126;2023-02-23T12:00:23;10.18;;;3.42;;
842;SDS011;407;48.884;9.126;2023-02-23T12:02:53;17.25;;;7.28;;
842;SDS011;407;48.884;9.126;2023-02-23T12:05:31;15.15;;;5.70;;
842;SDS011;407;48.884;9.126;2023-02-23T12:08:11;9.65;;;3.80;;
842;SDS011;407;48.884;9.126;2023-02-23T12:10:40;8.93;;;3.30;;
842;SDS011;407;48.884;9.126;2023-02-23T12:16:02;9.70;;;3.53;;
842;SDS011;407;48.884;9.126;2023-02-23T12:27:10;9.80;;;3.50;;
842;SDS011;407;48.884;9.126;2023-02-23T12:29:47;12.57;;;3.70;;
842;SDS011;407;48.884;9.126;2023-02-23T12:35:01;9.98;;;2.88;;
842;SDS011;407;48.884;9.126;2023-02-23T12:37:53;12.05;;;3.40;;
842;SDS011;407;48.884;9.126;2023-02-23T12:40:41;8.90;;;3.47;;
842;SDS011;407;48.884;9.126;2023-02-23T12:43:28;9.20;;;3.60;;
842;SDS011;407;48.884;9.126;2023-02-23T12:49:10;13.40;;;4.03;;
842;SDS011;407;48.884;9.126;2023-02-23T12:51:43;8.10;;;2.87;;
842;SDS011;407;48.884;9.126;2023-02-23T12:54:15;9.07;;;2.95;;
842;SDS011;407;48.884;9.126;2023-02-23T13:05:05;10.97;;;3.40;;
842;SDS011;407;48.884;9.126;2023-02-23T13:18:32;11.93;;;3.47;;
842;SDS011;407;48.884;9.126;2023-02-23T13:21:01;11.13;;;3.25;;
842;SDS011;407;48.884;9.126;2023-02-23T13:23:37;12.00;;;3.55;;
842;SDS011;407;48.884;9.126;2023-02-23T13:26:29;11.60;;;3.83;;
842;SDS011;407;48.884;9.126;2023-02-23T13:31:47;8.57;;;3.20;;
842;SDS011;407;48.884;9.126;2023-02-23T13:34:20;12.25;;;4.10;;
842;SDS011;407;48.884;9.126;2023-02-23T13:36:51;10.88;;;3.20;;
842;SDS011;407;48.884;9.126;2023-02-23T13:53:31;10.63;;;2.80;;
842;SDS011;407;48.884;9.126;2023-02-23T13:56:24;8.10;;;2.70;;
842;SDS011;407;48.884;9.126;2023-02-23T13:58:51;10.63;;;3.17;;
842;SDS011;407;48.884;9.126;2023-02-23T14:03:54;9.53;;;2.97;;
842;SDS011;407;48.884;9.126;2023-02-23T14:06:23;8.60;;;2.78;;
842;SDS011;407;48.884;9.126;2023-02-23T14:08:56;11.60;;;3.08;;
842;SDS011;407;48.884;9.126;2023-02-23T14:14:36;13.02;;;3.63;;
842;SDS011;407;48.884;9.126;2023-02-23T14:20:13;11.43;;;4.35;;
842;SDS011;407;48.884;9.126;2023-02-23T14:23:04;10.00;;;4.10;;
842;SDS011;407;48.884;9.126;2023-02-23T14:41:37;13.43;;;4.30;;
842;SDS011;407;48.884;9.126;2023-02-23T14:44:15;13.88;;;4.20;;
842;SDS011;407;48.884;9.126;2023-02-23T14:47:04;14.70;;;4.70;;
842;SDS011;407;48.884;9.126;2023-02-23T14:49:41;11.50;;;4.22;;
842;SDS011;407;48.884;9.126;2023-02-23T14:52:12;11.50;;;4.20;;
842;SDS011;407;48.884;9.126;2023-02-23T14:54:43;11.25;;;5.00;;
842;SDS011;407;48.884;9.126;2023-02-23T14:57:17;12.27;;;4.68;;
842;SDS011;407;48.884;9.126;2023-02-23T14:59:50;12.27;;;4.83;;
842;SDS011;407;48.884;9.126;2023-02-23T15:02:21;12.52;;;4.95;;
842;SDS011;407;48.884;9.126;2023-02-23T15:04:49;12.05;;;5.22;;
842;SDS011;407;48.884;9.126;2023-02-23T15:07:36;10.47;;;4.53;;
842;SDS011;407;48.884;9.126;2023-02-23T15:10:06;10.80;;;4.40;;
842;SDS011;407;48.884;9.126;2023-02-23T15:12:35;10.35;;;4.90;;
842;SDS011;407;48.884;9.126;2023-02-23T15:15:04;10.50;;;3.80;;
842;SDS011;407;48.884;9.126;2023-02-23T15:17:40;15.23;;;4.68;;
842;SDS011;407;48.884;9.126;2023-02-23T15:20:13;11.93;;;4.57;;
842;SDS011;407;48.884;9.126;2023-02-23T15:22:41;14.10;;;4.10;;
842;SDS011;407;48.884;9.126;2023-02-23T15:25:17;12.85;;;4.53;;
842;SDS011;407;48.884;9.126;2023-02-23T15:27:46;11.68;;;4.50;;
842;SDS011;407;48.884;9.126;2023-02-23T15:35:29;13.48;;;6.30;;
842;SDS011;407;48.884;9.126;2023-02-23T15:38:01;16.58;;;6.20;;
842;SDS011;407;48.884;9.126;2023-02-23T15:40:31;12.80;;;5.30;;
842;SDS011;407;48.884;9.126;2023-02-23T15:42:57;18.40;;;6.10;;
842;SDS011;407;48.884;9.126;2023-02-23T15:47:55;14.55;;;5.28;;
842;SDS011;407;48.884;9.126;2023-02-23T15:50:27;14.18;;;5.70;;
842;SDS011;407;48.884;9.126;2023-02-23T15:53:00;13.35;;;5.53;;
842;SDS011;407;48.884;9.126;2023-02-23T15:55:37;12.57;;;5.18;;
842;SDS011;407;48.884;9.126;2023-02-23T15:58:19;14.13;;;5.35;;
842;SDS011;407;48.884;9.126;2023-02-23T16:00:49;16.00;;;6.80;;
842;SDS011;407;48.884;9.126;2023-02-23T16:03:36;17.98;;;7.30;;
842;SDS011;407;48.884;9.126;2023-02-23T16:06:24;15.80;;;6.03;;
842;SDS011;407;48.884;9.126;2023-02-23T16:08:57;16.88;;;5.72;;
842;SDS011;407;48.884;9.126;2023-02-23T16:11:30;17.08;;;6.75;;
842;SDS011;407;48.884;9.126;2023-02-23T16:14:00;19.13;;;7.07;;
842;SDS011;407;48.884;9.126;2023-02-23T16:16:27;19.25;;;6.30;;
842;SDS011;407;48.884;9.126;2023-02-23T16:18:54;14.05;;;6.20;;
842;SDS011;407;48.884;9.126;2023-02-23T16:21:30;17.17;;;6.90;;
842;SDS011;407;48.884;9.126;2023-02-23T16:23:57;16.55;;;6.53;;
842;SDS011;407;48.884;9.126;2023-02-23T16:26:33;14.93;;;6.73;;
842;SDS011;407;48.884;9.126;2023-02-23T16:29:04;15.63;;;6.03;;
842;SDS011;407;48.884;9.126;2023-02-23T16:31:41;15.07;;;6.30;;
842;SDS011;407;48.884;9.126;2023-02-23T16:34:25;16.93;;;6.70;;
842;SDS011;407;48.884;9.126;2023-02-23T16:36:56;13.90;;;6.07;;
842;SDS011;407;48.884;9.126;2023-02-23T16:39:24;17.10;;;6.60;;
842;SDS011;407;48.884;9.126;2023-02-23T16:41:55;12.07;;;5.20;;
842;SDS011;407;48.884;9.126;2023-02-23T16:44:22;16.03;;;6.37;;
842;SDS011;407;48.884;9.126;2023-02-23T16:49:27;17.25;;;7.03;;
842;SDS011;407;48.884;9.126;2023-02-23T16:51:57;19.67;;;7.72;;
842;SDS011;407;48.884;9.126;2023-02-23T16:54:23;17.97;;;7.00;;
842;SDS011;407;48.884;9.126;2023-02-23T16:56:49;18.83;;;7.07;;
842;SDS011;407;48.884;9.126;2023-02-23T16:59:19;18.58;;;7.25;;
842;SDS011;407;48.884;9.126;2023-02-23T17:01:47;18.40;;;7.13;;
842;SDS011;407;48.884;9.126;2023-02-23T17:04:15;18.20;;;8.50;;
842;SDS011;407;48.884;9.126;2023-02-23T17:06:42;33.83;;;10.63;;
842;SDS011;407;48.884;9.126;2023-02-23T17:09:09;19.95;;;8.55;;
842;SDS011;407;48.884;9.126;2023-02-23T17:11:36;18.10;;;7.40;;
842;SDS011;407;48.884;9.126;2023-02-23T17:14:03;14.33;;;6.63;;
842;SDS011;407;48.884;9.126;2023-02-23T17:16:28;15.65;;;6.72;;
842;SDS011;407;48.884;9.126;2023-02-23T17:18:54;18.30;;;6.87;;
842;SDS011;407;48.884;9.126;2023-02-23T17:21:23;14.25;;;6.90;;
842;SDS011;407;48.884;9.126;2023-02-23T17:23:50;16.02;;;6.95;;
842;SDS011;407;48.884;9.126;2023-02-23T17:26:18;17.23;;;7.38;;
842;SDS011;407;48.884;9.126;2023-02-23T17:28:48;16.30;;;7.20;;
842;SDS011;407;48.884;9.126;2023-02-23T17:31:15;19.63;;;7.00;;
842;SDS011;407;48.884;9.126;2023-02-23T17:33:43;20.00;;;7.97;;
842;SDS011;407;48.884;9.126;2023-02-23T17:36:10;22.98;;;9.82;;
842;SDS011;407;48.884;9.126;2023-02-23T17:38:38;20.90;;;8.30;;
842;SDS011;407;48.884;9.126;2023-02-23T17:41:08;16.25;;;8.35;;
842;SDS011;407;48.884;9.126;2023-02-23T17:43:42;18.55;;;7.97;;
842;SDS011;407;48.884;9.126;2023-02-23T17:46:10;18.65;;;8.25;;
842;SDS011;407;48.884;9.126;2023-02-23T17:48:39;19.20;;;8.52;;
842;SDS011;407;48.884;9.126;2023-02-23T17:51:08;20.30;;;7.88;;
842;SDS011;407;48.884;9.126;2023-02-23T17:53:36;17.75;;;7.10;;
842;SDS011;407;48.884;9.126;2023-02-23T17:56:03;16.73;;;6.63;;
842;SDS011;407;48.884;9.126;2023-02-23T17:58:30;16.45;;;7.38;;
842;SDS011;407;48.884;9.126;2023-02-23T18:00:57;14.80;;;7.40;;
842;SDS011;407;48.884;9.126;2023-02-23T18:03:26;16.13;;;7.27;;
842;SDS011;407;48.884;9.126;2023-02-23T18:05:59;15.32;;;7.00;;
842;SDS011;407;48.884;9.126;2023-02-23T18:08:28;17.35;;;7.50;;
842;SDS011;407;48.884;9.126;2023-02-23T18:10:54;15.75;;;7.10;;
842;SDS011;407;48.884;9.126;2023-02-23T18:13:20;16.25;;;7.70;;
842;SDS011;407;48.884;9.126;2023-02-23T18:16:08;15.50;;;6.95;;
842;SDS011;407;48.884;9.126;2023-02-23T18:18:34;19.65;;;7.38;;
842;SDS011;407;48.884;9.126;2023-02-23T18:21:02;18.27;;;7.03;;
842;SDS011;407;48.884;9.126;2023-02-23T18:23:28;18.73;;;8.20;;
842;SDS011;407;48.884;9.126;2023-02-23T18:26:03;15.73;;;8.00;;